Time;durP1;ratioP1;P1;durP2;ratioP2;P2;SDS_P1;SDS_P2;PMS_P1;PMS_P2;Temp;Humidity;BMP_temperature;BMP_pressure;BME280_temperature;BME280_humidity;BME280_pressure;Samples;Min_cycle;Max_cycle;Signal;HPM_P1;HPM_P2
2023/03/21 00:00:11;;;;;;;;;;;;;;;;;;4419765;32;20026;-78
2023/03/21 00:02:36;;;;;;;36.67;28.77;;;;;;;;;;4421048;32;19930;-78
2023/03/21 00:05:02;;;;;;;;;;;;;;;;;;4424061;32;20018;-78
2023/03/21 00:07:27;;;;;;;42.05;29.08;;;;;;;;;;4424085;32;19933;-78
2023/03/21 00:09:52;;;;;;;38.95;29.27;;;;;;;;;;4421528;32;20029;-78
2023/03/21 00:12:19;;;;;;;;;;;;;;;;;;4420438;32;20145;-78
2023/03/21 00:14:45;;;;;;;38.80;29.48;;;;;;;;;;4419495;32;20307;-78
2023/03/21 00:17:10;;;;;;;37.53;28.42;;;;;;;;;;4420662;32;20026;-78
2023/03/21 00:19:37;;;;;;;;;;;;;;;;;;4420809;32;20481;-78
2023/03/21 00:22:02;;;;;;;45.75;31.27;;;;;;;;;;4420491;32;19993;-78
2023/03/21 00:24:27;;;;;;;;;;;;;;;;;;4419957;32;20053;-78
2023/03/21 00:26:52;;;;;;;41.42;29.20;;;;;;;;;;4424775;32;20314;-78
2023/03/21 00:29:18;;;;;;;;;;;;;;;;;;4423127;32;20018;-79
2023/03/21 00:31:43;;;;;;;44.10;31.50;;;;;;;;;;4421901;32;20000;-79
2023/03/21 00:34:08;;;;;;;;;;;;;;;;;;4421897;32;20445;-78
2023/03/21 00:36:33;;;;;;;46.78;32.75;;;;;;;;;;4421823;32;19936;-78
2023/03/21 00:38:59;;;;;;;42.15;32.42;;;;;;;;;;4422737;32;20416;-78
2023/03/21 00:41:24;;;;;;;45.42;36.15;;;;;;;;;;4424202;32;20080;-78
2023/03/21 00:43:50;;;;;;;;;;;;;;;;;;4440378;32;20034;-78
2023/03/21 00:46:16;;;;;;;59.25;36.55;;;;;;;;;;4445986;32;19929;-78
2023/03/21 00:48:41;;;;;;;;;;;;;;;;;;4442445;32;20052;-79
2023/03/21 00:51:25;;;;;;;54.20;37.10;;;;;;;;;;4441841;32;19928;-78
2023/03/21 00:53:55;;;;;;;51.53;35.75;;;;;;;;;;4439312;32;20135;-79
2023/03/21 00:56:20;;;;;;;51.55;36.38;;;;;;;;;;4439972;32;20018;-79
2023/03/21 00:58:45;;;;;;;;;;;;;;;;;;4439204;32;20048;-79
2023/03/21 01:01:10;;;;;;;53.90;34.53;;;;;;;;;;4436987;32;20340;-79
2023/03/21 01:03:41;;;;;;;;;;;;;;;;;;4438237;32;20067;-79
2023/03/21 01:06:07;;;;;;;47.50;33.20;;;;;;;;;;4438723;32;20253;-79
2023/03/21 01:08:34;;;;;;;47.13;33.53;;;;;;;;;;4436970;32;20014;-78
2023/03/21 01:11:01;;;;;;;55.50;35.60;;;;;;;;;;4439095;32;20041;-78
2023/03/21 01:13:26;;;;;;;46.83;33.30;;;;;;;;;;4442536;32;20071;-79
2023/03/21 01:15:51;;;;;;;;;;;;;;;;;;4438196;32;20376;-78
2023/03/21 01:18:18;;;;;;;53.58;33.47;;;;;;;;;;4441451;32;19993;-78
2023/03/21 01:20:44;;;;;;;57.78;35.13;;;;;;;;;;4444670;32;20041;-77
2023/03/21 01:23:09;;;;;;;;;;;;;;;;;;4444231;32;20022;-76
2023/03/21 01:25:34;;;;;;;53.63;35.15;;;;;;;;;;4442964;32;19936;-78
2023/03/21 01:27:59;;;;;;;;;;;;;;;;;;4443048;32;20117;-78
2023/03/21 01:30:25;;;;;;;60.15;37.13;;;;;;;;;;4442145;32;19967;-77
2023/03/21 01:32:50;;;;;;;;;;;;;;;;;;4439812;32;20509;-77
2023/03/21 01:35:15;;;;;;;57.62;36.88;;;;;;;;;;4439521;32;19936;-78
2023/03/21 01:37:42;;;;;;;;;;;;;;;;;;4437369;32;20144;-78
2023/03/21 01:40:11;;;;;;;55.27;35.23;;;;;;;;;;4438027;32;19978;-78
2023/03/21 01:42:37;;;;;;;60.10;36.92;;;;;;;;;;4437836;32;20022;-78
2023/03/21 01:45:02;;;;;;;;;;;;;;;;;;4437914;32;20040;-78
2023/03/21 01:47:27;;;;;;;60.00;35.42;;;;;;;;;;4438694;32;19941;-78
2023/03/21 01:49:55;;;;;;;61.05;36.95;;;;;;;;;;4438912;32;20022;-78
2023/03/21 01:52:23;;;;;;;54.38;34.47;;;;;;;;;;4437990;32;20121;-78
2023/03/21 01:54:48;;;;;;;51.28;32.67;;;;;;;;;;4438689;32;20061;-78
2023/03/21 01:57:13;;;;;;;;;;;;;;;;;;4439417;32;20062;-78
2023/03/21 01:59:44;;;;;;;46.55;29.42;;;;;;;;;;4440084;32;19941;-77
2023/03/21 02:02:16;;;;;;;46.53;29.12;;;;;;;;;;4422526;32;20017;-77
2023/03/21 02:04:54;;;;;;;42.72;27.98;;;;;;;;;;4421557;32;20433;-78
2023/03/21 02:07:24;;;;;;;42.00;24.87;;;;;;;;;;4424695;32;20010;-78
2023/03/21 02:09:50;;;;;;;44.45;24.98;;;;;;;;;;4422895;32;20036;-77
2023/03/21 02:12:17;;;;;;;;;;;;;;;;;;4426472;32;20018;-78
2023/03/21 02:14:42;;;;;;;;;;;;;;;;;;4427292;32;19933;-77
2023/03/21 02:17:25;;;;;;;36.03;22.60;;;;;;;;;;4424417;32;19952;-76
2023/03/21 02:20:00;;;;;;;39.80;22.83;;;;;;;;;;4423181;32;20178;-77
2023/03/21 02:22:25;;;;;;;34.95;22.45;;;;;;;;;;4423635;32;20059;-76
2023/03/21 02:24:50;;;;;;;;;;;;;;;;;;4422926;32;20021;-77
2023/03/21 02:27:17;;;;;;;41.30;23.75;;;;;;;;;;4420755;32;19941;-79
2023/03/21 02:30:03;;;;;;;35.30;22.75;;;;;;;;;;4423236;32;20022;-79
2023/03/21 02:32:28;;;;;;;39.08;23.65;;;;;;;;;;4422437;32;20135;-79
2023/03/21 02:34:53;;;;;;;;;;;;;;;;;;4422796;32;20019;-79
2023/03/21 02:37:30;;;;;;;47.10;25.60;;;;;;;;;;4420251;32;19972;-78
2023/03/21 02:40:14;;;;;;;43.40;25.90;;;;;;;;;;4406350;32;20531;-78
2023/03/21 02:42:45;;;;;;;40.72;23.80;;;;;;;;;;4404570;32;20112;-76
2023/03/21 02:45:19;;;;;;;36.63;21.35;;;;;;;;;;4404333;32;20018;-77
2023/03/21 02:47:51;;;;;;;38.97;23.58;;;;;;;;;;4407179;32;20057;-76
2023/03/21 02:50:43;;;;;;;44.13;25.50;;;;;;;;;;4405761;32;20057;-76
2023/03/21 02:53:10;;;;;;;40.50;23.65;;;;;;;;;;4403918;32;20014;-77
2023/03/21 02:55:36;;;;;;;37.47;24.08;;;;;;;;;;4404215;32;20378;-76
2023/03/21 02:58:01;;;;;;;;;;;;;;;;;;4406246;32;20019;-76
2023/03/21 03:00:31;;;;;;;44.53;24.58;;;;;;;;;;4410882;32;20014;-77
2023/03/21 03:02:56;;;;;;;40.67;23.38;;;;;;;;;;4422015;32;20014;-77
2023/03/21 03:05:22;;;;;;;;;;;;;;;;;;4424190;32;20041;-77
2023/03/21 03:08:02;;;;;;;45.60;24.87;;;;;;;;;;4421562;32;20027;-76
2023/03/21 03:10:43;;;;;;;45.47;26.00;;;;;;;;;;4407623;32;20057;-76
2023/03/21 03:13:27;;;;;;;49.42;25.92;;;;;;;;;;4404733;32;20060;-77
2023/03/21 03:16:06;;;;;;;41.40;25.45;;;;;;;;;;4404215;32;20030;-77
2023/03/21 03:18:47;;;;;;;44.25;23.77;;;;;;;;;;4405676;32;20007;-77
2023/03/21 03:21:28;;;;;;;42.22;23.87;;;;;;;;;;4406646;32;20071;-77
2023/03/21 03:23:56;;;;;;;37.28;22.08;;;;;;;;;;4405027;32;20096;-77
2023/03/21 03:26:25;;;;;;;39.22;23.20;;;;;;;;;;4405084;32;20022;-77
2023/03/21 03:28:52;;;;;;;42.13;22.83;;;;;;;;;;4404170;32;20101;-77
2023/03/21 03:31:20;;;;;;;35.10;21.83;;;;;;;;;;4405116;32;20439;-77
2023/03/21 03:33:50;;;;;;;42.90;22.35;;;;;;;;;;4403989;32;20014;-77
2023/03/21 03:36:17;;;;;;;36.83;23.15;;;;;;;;;;4406295;32;20035;-77
2023/03/21 03:38:44;;;;;;;40.05;22.27;;;;;;;;;;4403892;32;20045;-78
2023/03/21 03:41:16;;;;;;;33.80;22.60;;;;;;;;;;4403941;32;20042;-78
2023/03/21 03:43:47;;;;;;;45.90;22.75;;;;;;;;;;4403873;32;20033;-77
2023/03/21 03:46:51;;;;;;;37.78;22.00;;;;;;;;;;4404047;32;20030;-77
2023/03/21 03:49:20;;;;;;;43.47;21.30;;;;;;;;;;4344321;33;20036;-78
2023/03/21 03:52:00;;;;;;;42.28;21.62;;;;;;;;;;4329772;33;20056;-78
2023/03/21 03:54:29;;;;;;;33.25;19.45;;;;;;;;;;4372886;32;20030;-78
2023/03/21 03:56:55;;;;;;;33.45;19.15;;;;;;;;;;4404374;32;20040;-79
2023/03/21 03:59:24;;;;;;;;;;;;;;;;;;4405851;32;20018;-79
2023/03/21 04:01:49;;;;;;;31.00;18.55;;;;;;;;;;4420930;32;19964;-78
2023/03/21 04:04:15;;;;;;;;;;;;;;;;;;4423324;32;20359;-78
2023/03/21 04:06:41;;;;;;;31.55;17.98;;;;;;;;;;4423660;32;19945;-79
2023/03/21 04:09:07;;;;;;;;;;;;;;;;;;4417152;32;20040;-79
2023/03/21 04:11:32;;;;;;;33.67;17.80;;;;;;;;;;4410618;32;19934;-79
2023/03/21 04:13:58;;;;;;;;;;;;;;;;;;4426417;32;20399;-78
2023/03/21 04:16:23;;;;;;;44.10;19.08;;;;;;;;;;4431025;32;19941;-79
2023/03/21 04:18:48;;;;;;;;;;;;;;;;;;4428598;32;20140;-80
2023/03/21 04:21:13;;;;;;;32.17;20.05;;;;;;;;;;4429799;32;19948;-78
2023/03/21 04:23:39;;;;;;;34.85;21.00;;;;;;;;;;4427632;32;20036;-79
2023/03/21 04:26:04;;;;;;;;;;;;;;;;;;4426224;32;20027;-78
2023/03/21 04:28:30;;;;;;;36.97;21.15;;;;;;;;;;4425317;32;19953;-79
2023/03/21 04:30:56;;;;;;;;;;;;;;;;;;4422525;32;20511;-78
2023/03/21 04:33:24;;;;;;;44.28;24.55;;;;;;;;;;4421766;32;19933;-78
2023/03/21 04:35:50;;;;;;;36.63;21.35;;;;;;;;;;4421889;32;20182;-79
2023/03/21 04:38:15;;;;;;;;;;;;;;;;;;4422506;32;20362;-79
2023/03/21 04:40:40;;;;;;;41.90;24.00;;;;;;;;;;4422984;32;19959;-80
2023/03/21 04:43:05;;;;;;;43.25;24.58;;;;;;;;;;4423486;32;20322;-79
2023/03/21 04:45:30;;;;;;;45.90;25.40;;;;;;;;;;4422851;32;20022;-78
2023/03/21 04:47:57;;;;;;;;;;;;;;;;;;4421718;32;20386;-78
2023/03/21 04:50:22;;;;;;;37.67;24.08;;;;;;;;;;4421099;32;19949;-79
2023/03/21 04:52:47;;;;;;;;;;;;;;;;;;4421727;32;20095;-79
2023/03/21 04:55:13;;;;;;;43.72;24.58;;;;;;;;;;4422829;32;19960;-79
2023/03/21 04:57:38;;;;;;;44.67;26.40;;;;;;;;;;4422444;32;20086;-79
2023/03/21 05:00:08;;;;;;;53.42;25.73;;;;;;;;;;4424098;32;20379;-78
2023/03/21 05:02:33;;;;;;;51.22;26.00;;;;;;;;;;4423632;32;20043;-78
2023/03/21 05:04:58;;;;;;;;;;;;;;;;;;4423797;32;20396;-77
2023/03/21 05:07:25;;;;;;;61.67;28.42;;;;;;;;;;4424545;32;20278;-78
2023/03/21 05:09:50;;;;;;;49.88;29.85;;;;;;;;;;4438695;32;20121;-77
2023/03/21 05:12:17;;;;;;;;;;;;;;;;;;4437947;32;20017;-78
2023/03/21 05:14:42;;;;;;;56.30;28.87;;;;;;;;;;4423598;32;19928;-78
2023/03/21 05:17:09;;;;;;;;;;;;;;;;;;4424193;32;20212;-78
2023/03/21 05:19:35;;;;;;;49.03;30.12;;;;;;;;;;4441444;32;19948;-78
2023/03/21 05:22:03;;;;;;;;;;;;;;;;;;4427798;32;20104;-76
2023/03/21 05:24:29;;;;;;;55.20;29.98;;;;;;;;;;4427144;32;20384;-78
2023/03/21 05:26:54;;;;;;;;;;;;;;;;;;4432086;32;20040;-78
2023/03/21 05:29:20;;;;;;;53.15;27.48;;;;;;;;;;4428970;32;19944;-78
2023/03/21 05:31:45;;;;;;;;;;;;;;;;;;4440915;32;20018;-79
2023/03/21 05:34:11;;;;;;;46.10;27.77;;;;;;;;;;4423570;32;19988;-79
2023/03/21 05:36:36;;;;;;;42.53;26.95;;;;;;;;;;4423946;32;20027;-79
2023/03/21 05:39:02;;;;;;;;;;;;;;;;;;4437895;32;20021;-79
2023/03/21 05:41:27;;;;;;;42.58;24.60;;;;;;;;;;4423545;32;19937;-79
2023/03/21 05:43:52;;;;;;;;;;;;;;;;;;4423657;32;20312;-78
2023/03/21 05:46:17;;;;;;;39.90;23.60;;;;;;;;;;4423001;32;20330;-79
2023/03/21 05:48:43;;;;;;;;;;;;;;;;;;4423921;32;20117;-79
2023/03/21 05:51:08;;;;;;;48.95;23.27;;;;;;;;;;4423200;32;20411;-79
2023/03/21 05:53:33;;;;;;;;;;;;;;;;;;4425846;32;20196;-79
2023/03/21 05:55:58;;;;;;;34.15;21.10;;;;;;;;;;4440749;32;19992;-79
2023/03/21 05:58:23;;;;;;;46.28;24.87;;;;;;;;;;4424499;32;20022;-80
2023/03/21 06:00:49;;;;;;;;;;;;;;;;;;4422633;32;20034;-79
2023/03/21 06:03:14;;;;;;;38.53;22.77;;;;;;;;;;4422719;32;19965;-80
2023/03/21 06:05:39;;;;;;;;;;;;;;;;;;4424926;32;20013;-79
2023/03/21 06:08:05;;;;;;;46.22;24.60;;;;;;;;;;4453276;32;19941;-80
2023/03/21 06:10:30;;;;;;;;;;;;;;;;;;4438281;32;20462;-80
2023/03/21 06:12:56;;;;;;;45.88;24.02;;;;;;;;;;4439097;32;19951;-80
2023/03/21 06:15:21;;;;;;;40.80;24.35;;;;;;;;;;4452537;32;20108;-79
2023/03/21 06:17:46;;;;;;;;;;;;;;;;;;4439135;32;20048;-80
2023/03/21 06:20:12;;;;;;;48.05;25.30;;;;;;;;;;4452543;32;20199;-80
2023/03/21 06:22:37;;;;;;;;;;;;;;;;;;4439386;32;20299;-81
2023/03/21 06:25:03;;;;;;;49.85;23.62;;;;;;;;;;4453141;32;19965;-80
2023/03/21 06:27:29;;;;;;;43.17;24.20;;;;;;;;;;4457829;32;20022;-80
2023/03/21 06:29:54;;;;;;;;;;;;;;;;;;4467961;32;20017;-80
2023/03/21 06:32:19;;;;;;;38.90;23.85;;;;;;;;;;4442259;32;19933;-80
2023/03/21 06:34:44;;;;;;;39.40;21.87;;;;;;;;;;4439842;32;20017;-79
2023/03/21 06:37:10;;;;;;;45.22;23.67;;;;;;;;;;4439028;32;20022;-79
2023/03/21 06:39:35;;;;;;;;;;;;;;;;;;4439182;32;20021;-79
2023/03/21 06:42:00;;;;;;;49.50;22.77;;;;;;;;;;4454349;32;19967;-79
2023/03/21 06:44:26;;;;;;;;;;;;;;;;;;4439390;32;20441;-80
2023/03/21 06:46:51;;;;;;;42.28;22.80;;;;;;;;;;4438326;32;19959;-80
2023/03/21 06:49:16;;;;;;;;;;;;;;;;;;4440249;32;20108;-80
2023/03/21 06:51:42;;;;;;;47.72;21.83;;;;;;;;;;4439692;32;19932;-79
2023/03/21 06:54:07;;;;;;;;;;;;;;;;;;4437968;32;20155;-77
2023/03/21 06:56:32;;;;;;;36.08;22.27;;;;;;;;;;4438160;32;19936;-78
2023/03/21 06:58:57;;;;;;;35.28;20.83;;;;;;;;;;4437287;32;20056;-77
2023/03/21 07:01:23;;;;;;;;;;;;;;;;;;4451201;32;20101;-77
2023/03/21 07:03:48;;;;;;;34.67;19.35;;;;;;;;;;4451712;32;20357;-76
2023/03/21 07:06:13;;;;;;;;;;;;;;;;;;4423867;32;20427;-76
2023/03/21 07:08:40;;;;;;;35.08;18.80;;;;;;;;;;4421019;32;20054;-76
2023/03/21 07:11:05;;;;;;;37.20;19.10;;;;;;;;;;4420428;32;20117;-75
2023/03/21 07:13:30;;;;;;;;;;;;;;;;;;4422423;32;20361;-77
2023/03/21 07:15:56;;;;;;;32.17;18.42;;;;;;;;;;4421041;32;19933;-75
2023/03/21 07:18:21;;;;;;;;;;;;;;;;;;4421192;32;20060;-76
2023/03/21 07:20:49;;;;;;;32.88;18.55;;;;;;;;;;4420677;32;19941;-75
2023/03/21 07:23:20;;;;;;;39.65;19.00;;;;;;;;;;4420240;32;20048;-75
2023/03/21 07:25:48;;;;;;;51.00;30.55;;;;;;;;;;4406464;32;20040;-76
2023/03/21 07:28:14;;;;;;;44.35;23.00;;;;;;;;;;4406414;32;20030;-76
2023/03/21 07:30:39;;;;;;;;;;;;;;;;;;4406718;32;20078;-76
2023/03/21 07:33:04;;;;;;;34.42;19.55;;;;;;;;;;4407463;32;19947;-76
2023/03/21 07:35:29;;;;;;;;;;;;;;;;;;4426880;32;20067;-75
2023/03/21 07:37:55;;;;;;;41.37;19.77;;;;;;;;;;4440752;32;19932;-75
2023/03/21 07:40:20;;;;;;;34.00;17.70;;;;;;;;;;4425234;32;20017;-75
2023/03/21 07:42:45;;;;;;;;;;;;;;;;;;4439864;32;20018;-75
2023/03/21 07:45:14;;;;;;;33.28;17.27;;;;;;;;;;4439673;32;20268;-75
2023/03/21 07:47:39;;;;;;;33.80;16.73;;;;;;;;;;4438702;32;20178;-76
2023/03/21 07:50:05;;;;;;;;;;;;;;;;;;4425041;32;20335;-75
2023/03/21 07:52:30;;;;;;;31.95;18.67;;;;;;;;;;4438717;32;19945;-75
2023/03/21 07:54:56;;;;;;;;;;;;;;;;;;4440218;32;20040;-75
2023/03/21 07:57:21;;;;;;;35.90;17.58;;;;;;;;;;4424104;32;20329;-74
2023/03/21 07:59:46;;;;;;;;;;;;;;;;;;4425861;32;20156;-74
2023/03/21 08:02:15;;;;;;;32.95;17.77;;;;;;;;;;4425740;32;19940;-76
2023/03/21 08:04:41;;;;;;;31.40;16.95;;;;;;;;;;4438688;32;20117;-75
2023/03/21 08:07:07;;;;;;;;;;;;;;;;;;4438881;32;20064;-76
2023/03/21 08:09:32;;;;;;;31.87;16.83;;;;;;;;;;4438522;32;19941;-76
2023/03/21 08:11:57;;;;;;;;;;;;;;;;;;4439438;32;20048;-77
2023/03/21 08:14:22;;;;;;;31.25;15.90;;;;;;;;;;4428652;32;19947;-77
2023/03/21 08:16:48;;;;;;;28.67;14.30;;;;;;;;;;4426534;32;20449;-77
2023/03/21 08:19:13;;;;;;;;;;;;;;;;;;4426350;32;20041;-77
2023/03/21 08:21:38;;;;;;;24.60;14.93;;;;;;;;;;4438638;32;20257;-77
2023/03/21 08:24:03;;;;;;;;;;;;;;;;;;4439201;32;20082;-78
2023/03/21 08:26:28;;;;;;;26.80;13.62;;;;;;;;;;4424821;32;19983;-78
2023/03/21 08:28:53;;;;;;;;;;;;;;;;;;4439508;32;20121;-78
2023/03/21 08:31:20;;;;;;;34.05;16.15;;;;;;;;;;4438460;32;19953;-79
2023/03/21 08:33:46;;;;;;;28.42;13.98;;;;;;;;;;4425298;32;20026;-79
2023/03/21 08:36:11;;;;;;;;;;;;;;;;;;4433187;32;20472;-80
2023/03/21 08:38:36;;;;;;;26.92;13.20;;;;;;;;;;4454396;32;19945;-80
2023/03/21 08:41:02;;;;;;;25.60;13.40;;;;;;;;;;4440764;32;20345;-80
2023/03/21 08:43:27;;;;;;;;;;;;;;;;;;4441038;32;20048;-81
2023/03/21 08:45:52;;;;;;;25.50;11.43;;;;;;;;;;4439823;32;19936;-81
2023/03/21 08:48:17;;;;;;;;;;;;;;;;;;4440894;32;20179;-81
2023/03/21 08:50:44;;;;;;;23.85;10.93;;;;;;;;;;4440541;32;19983;-82
2023/03/21 08:53:09;;;;;;;22.58;9.77;;;;;;;;;;4440546;32;20044;-83
2023/03/21 08:55:35;;;;;;;;;;;;;;;;;;4440279;32;20080;-81
2023/03/21 08:58:01;;;;;;;16.25;9.02;;;;;;;;;;4439874;32;19936;-82
2023/03/21 09:00:27;;;;;;;19.62;9.60;;;;;;;;;;4439851;32;20586;-82
2023/03/21 09:02:54;;;;;;;;;;;;;;;;;;4440074;32;20021;-81
2023/03/21 09:05:20;;;;;;;20.37;9.80;;;;;;;;;;4444965;32;19937;-81
2023/03/21 09:07:45;;;;;;;;;;;;;;;;;;4422480;32;20064;-81
2023/03/21 09:10:13;;;;;;;21.40;9.98;;;;;;;;;;4423673;32;20338;-81
2023/03/21 09:12:40;;;;;;;19.92;9.65;;;;;;;;;;4431510;32;20220;-80
2023/03/21 09:15:06;;;;;;;22.60;10.10;;;;;;;;;;4430544;32;20097;-81
2023/03/21 09:17:31;;;;;;;22.50;10.68;;;;;;;;;;4426306;32;20064;-81
2023/03/21 09:19:59;;;;;;;;;;;;;;;;;;4422713;32;20034;-80
2023/03/21 09:22:24;;;;;;;19.55;10.23;;;;;;;;;;4421524;32;20023;-80
2023/03/21 09:24:50;;;;;;;21.33;10.05;;;;;;;;;;4421499;32;20022;-81
2023/03/21 09:27:21;;;;;;;21.52;11.32;;;;;;;;;;4421324;32;20460;-80
2023/03/21 09:29:47;;;;;;;19.10;11.38;;;;;;;;;;4421742;32;20068;-79
2023/03/21 09:32:13;;;;;;;;;;;;;;;;;;4432377;32;20017;-79
2023/03/21 09:34:39;;;;;;;21.40;10.70;;;;;;;;;;4423276;32;20377;-80
2023/03/21 09:37:08;;;;;;;19.37;10.52;;;;;;;;;;4440390;32;20014;-80
2023/03/21 09:39:34;;;;;;;22.50;11.27;;;;;;;;;;4439482;32;20014;-81
2023/03/21 09:41:59;;;;;;;;;;;;;;;;;;4453200;32;20051;-80
2023/03/21 09:44:56;;;;;;;17.98;9.77;;;;;;;;;;4453101;32;19972;-81
2023/03/21 09:47:27;;;;;;;22.25;11.95;;;;;;;;;;4436856;32;20117;-82
2023/03/21 09:50:02;;;;;;;21.02;11.63;;;;;;;;;;4438780;32;20017;-81
2023/03/21 09:52:48;;;;;;;22.60;11.20;;;;;;;;;;4441487;32;20048;-81
2023/03/21 09:55:18;;;;;;;20.83;11.85;;;;;;;;;;4441998;32;20021;-81
2023/03/21 09:57:45;;;;;;;20.23;11.77;;;;;;;;;;4453951;32;20052;-80
2023/03/21 10:00:24;;;;;;;20.25;11.27;;;;;;;;;;4426975;32;20099;-81
2023/03/21 10:02:52;;;;;;;26.42;12.52;;;;;;;;;;4440752;32;20043;-79
2023/03/21 10:05:25;;;;;;;27.08;14.10;;;;;;;;;;4444671;32;20009;-78
2023/03/21 10:07:56;;;;;;;24.00;10.95;;;;;;;;;;4442247;32;20408;-80
2023/03/21 10:10:27;;;;;;;24.25;11.10;;;;;;;;;;4441281;32;20022;-81
2023/03/21 10:12:53;;;;;;;21.35;11.85;;;;;;;;;;4439473;32;20018;-80
2023/03/21 10:15:20;;;;;;;25.33;11.95;;;;;;;;;;4452725;32;20393;-79
2023/03/21 10:17:50;;;;;;;20.27;12.55;;;;;;;;;;4438242;32;20017;-80
2023/03/21 10:20:20;;;;;;;23.87;11.35;;;;;;;;;;4438790;32;20096;-79
2023/03/21 10:22:47;;;;;;;21.75;12.63;;;;;;;;;;4453473;32;20017;-81
2023/03/21 10:25:14;;;;;;;27.65;12.35;;;;;;;;;;4438763;32;20058;-79
2023/03/21 10:27:40;;;;;;;20.27;11.43;;;;;;;;;;4438104;32;20059;-80
2023/03/21 10:30:06;;;;;;;;;;;;;;;;;;4438271;32;20406;-79
2023/03/21 10:32:32;;;;;;;24.37;12.05;;;;;;;;;;4439850;32;19939;-79
2023/03/21 10:34:57;;;;;;;23.20;11.43;;;;;;;;;;4445735;32;20058;-78
2023/03/21 10:37:23;;;;;;;21.55;12.18;;;;;;;;;;4440896;32;20014;-81
2023/03/21 10:39:50;;;;;;;23.25;11.48;;;;;;;;;;4439572;32;20418;-79
2023/03/21 10:42:25;;;;;;;24.20;11.93;;;;;;;;;;4438489;32;20022;-80
2023/03/21 10:44:52;;;;;;;19.80;11.63;;;;;;;;;;4447176;32;20044;-80
2023/03/21 10:47:24;;;;;;;22.48;11.68;;;;;;;;;;4449525;32;20074;-81
2023/03/21 10:49:50;;;;;;;22.77;11.70;;;;;;;;;;4456401;32;20100;-79
2023/03/21 10:52:15;;;;;;;;;;;;;;;;;;4438603;32;20409;-79
2023/03/21 10:54:41;;;;;;;26.23;11.63;;;;;;;;;;4438032;32;19969;-79
2023/03/21 10:57:16;;;;;;;26.67;11.27;;;;;;;;;;4452940;32;20044;-80
2023/03/21 10:59:44;;;;;;;25.73;11.50;;;;;;;;;;4452839;32;20421;-81
2023/03/21 11:02:16;;;;;;;22.75;11.88;;;;;;;;;;4437884;32;20041;-80
2023/03/21 11:04:42;;;;;;;21.08;12.48;;;;;;;;;;4447818;32;20500;-80
2023/03/21 11:07:09;;;;;;;;;;;;;;;;;;4438685;32;20037;-80
2023/03/21 11:09:42;;;;;;;27.25;11.90;;;;;;;;;;4437464;32;19933;-80
2023/03/21 11:12:28;;;;;;;21.00;10.73;;;;;;;;;;4437415;32;20030;-80
2023/03/21 11:14:53;;;;;;;21.52;10.63;;;;;;;;;;4434620;32;20451;-80
2023/03/21 11:17:19;;;;;;;;;;;;;;;;;;4438102;32;20038;-78
2023/03/21 11:19:50;;;;;;;25.85;10.05;;;;;;;;;;4437233;32;19943;-80
2023/03/21 11:22:17;;;;;;;18.00;9.57;;;;;;;;;;4451666;32;20399;-80
2023/03/21 11:24:46;;;;;;;18.90;8.20;;;;;;;;;;4437745;32;20366;-81
2023/03/21 11:27:11;;;;;;;18.02;9.82;;;;;;;;;;4437913;32;20097;-81
2023/03/21 11:29:37;;;;;;;;;;;;;;;;;;4453115;32;20037;-80
2023/03/21 11:32:10;;;;;;;26.48;9.05;;;;;;;;;;4442569;32;20246;-80
2023/03/21 11:34:38;;;;;;;23.02;9.90;;;;;;;;;;4457833;32;20368;-80
2023/03/21 11:37:03;;;;;;;19.40;9.93;;;;;;;;;;4440622;32;20033;-80
2023/03/21 11:39:29;;;;;;;;;;;;;;;;;;4438841;32;20342;-81
2023/03/21 11:41:54;;;;;;;15.95;8.70;;;;;;;;;;4451532;32;19945;-82
2023/03/21 11:44:25;;;;;;;14.55;9.55;;;;;;;;;;4451847;32;20434;-82
2023/03/21 11:46:51;;;;;;;17.95;9.93;;;;;;;;;;4452193;32;20037;-80
2023/03/21 11:49:16;;;;;;;;;;;;;;;;;;4438471;32;20478;-81
2023/03/21 11:51:52;;;;;;;19.92;9.13;;;;;;;;;;4438341;32;19947;-82
2023/03/21 11:54:20;;;;;;;17.33;8.18;;;;;;;;;;4438054;32;20044;-82
2023/03/21 11:56:48;;;;;;;16.73;8.65;;;;;;;;;;4452048;32;20387;-79
2023/03/21 11:59:20;;;;;;;13.60;8.13;;;;;;;;;;4438127;32;20061;-81
2023/03/21 12:01:49;;;;;;;18.85;8.32;;;;;;;;;;4427755;32;20042;-79
2023/03/21 12:04:30;;;;;;;16.37;8.48;;;;;;;;;;4406867;32;20026;-80
2023/03/21 12:06:59;;;;;;;17.45;9.80;;;;;;;;;;4421212;32;20030;-81
2023/03/21 12:09:35;;;;;;;15.02;9.57;;;;;;;;;;4421784;32;20053;-80
2023/03/21 12:12:21;;;;;;;20.17;9.18;;;;;;;;;;4422763;32;20044;-80
2023/03/21 12:14:54;;;;;;;21.20;9.70;;;;;;;;;;4407512;32;20488;-81
2023/03/21 12:17:25;;;;;;;15.63;8.95;;;;;;;;;;4421533;32;20092;-82
2023/03/21 12:19:50;;;;;;;17.92;9.68;;;;;;;;;;4408923;32;20030;-82
2023/03/21 12:22:15;;;;;;;;;;;;;;;;;;4411736;32;20071;-81
2023/03/21 12:24:45;;;;;;;13.35;8.30;;;;;;;;;;4426315;32;19933;-81
2023/03/21 12:27:19;;;;;;;18.50;9.90;;;;;;;;;;4426430;32;20018;-80
2023/03/21 12:29:44;;;;;;;21.83;9.95;;;;;;;;;;4430990;32;20030;-79
2023/03/21 12:32:10;;;;;;;15.20;8.73;;;;;;;;;;4416723;32;20055;-84
2023/03/21 12:34:54;;;;;;;19.55;9.02;;;;;;;;;;4412518;32;20076;-81
2023/03/21 12:37:38;;;;;;;21.33;8.80;;;;;;;;;;4423575;32;20060;-81
2023/03/21 12:40:12;;;;;;;14.82;8.55;;;;;;;;;;4410470;32;20034;-81
2023/03/21 12:42:54;;;;;;;15.20;8.95;;;;;;;;;;4409834;32;20057;-80
2023/03/21 12:45:24;;;;;;;15.20;8.55;;;;;;;;;;4410179;32;20139;-82
2023/03/21 12:47:52;;;;;;;19.23;9.25;;;;;;;;;;4410103;32;20029;-82
2023/03/21 12:50:19;;;;;;;14.18;9.10;;;;;;;;;;4424196;32;20161;-82
2023/03/21 12:52:47;;;;;;;18.98;9.75;;;;;;;;;;4438571;32;20084;-80
2023/03/21 12:55:19;;;;;;;17.55;9.63;;;;;;;;;;4423380;32;20060;-80
2023/03/21 12:57:46;;;;;;;25.27;11.20;;;;;;;;;;4421069;32;20011;-81
2023/03/21 13:00:41;;;;;;;21.15;10.32;;;;;;;;;;4431094;32;20068;-81
2023/03/21 13:03:16;;;;;;;16.05;9.85;;;;;;;;;;4397939;32;20030;-81
2023/03/21 13:05:53;;;;;;;19.33;11.05;;;;;;;;;;4423940;32;20049;-80
2023/03/21 13:08:19;;;;;;;;;;;;;;;;;;4411479;32;20064;-80
2023/03/21 13:10:45;;;;;;;18.43;10.50;;;;;;;;;;4424864;32;19941;-81
2023/03/21 13:13:30;;;;;;;17.67;9.70;;;;;;;;;;4423754;32;20075;-80
2023/03/21 13:16:01;;;;;;;18.27;9.98;;;;;;;;;;4409913;32;20056;-82
2023/03/21 13:18:35;;;;;;;17.90;10.57;;;;;;;;;;4409394;32;20355;-82
2023/03/21 13:21:12;;;;;;;20.73;9.20;;;;;;;;;;4409639;32;20058;-81
2023/03/21 13:23:37;;;;;;;15.57;8.98;;;;;;;;;;4409372;32;20410;-80
2023/03/21 13:26:03;;;;;;;;;;;;;;;;;;4424609;32;20022;-79
2023/03/21 13:28:29;;;;;;;14.05;8.50;;;;;;;;;;4411883;32;19987;-82
2023/03/21 13:31:13;;;;;;;19.55;9.80;;;;;;;;;;4409137;32;20148;-81
2023/03/21 13:33:43;;;;;;;13.75;9.30;;;;;;;;;;4424005;32;20046;-80
2023/03/21 13:36:12;;;;;;;15.95;8.60;;;;;;;;;;4428180;32;20069;-82
2023/03/21 13:38:40;;;;;;;14.60;9.38;;;;;;;;;;4424438;32;20052;-80
2023/03/21 13:41:11;;;;;;;13.13;8.70;;;;;;;;;;4409749;32;20048;-80
2023/03/21 13:43:56;;;;;;;16.80;8.13;;;;;;;;;;4428055;32;20022;-83
2023/03/21 13:46:24;;;;;;;16.90;9.10;;;;;;;;;;4423430;32;20052;-81
2023/03/21 13:48:54;;;;;;;11.43;8.07;;;;;;;;;;4409230;32;20423;-81
2023/03/21 13:51:35;;;;;;;18.23;8.45;;;;;;;;;;4421434;32;20430;-80
2023/03/21 13:54:06;;;;;;;12.70;7.90;;;;;;;;;;4430804;32;20030;-81
2023/03/21 13:56:58;;;;;;;15.90;9.07;;;;;;;;;;4433861;32;20061;-81
2023/03/21 13:59:45;;;;;;;15.90;8.45;;;;;;;;;;4438114;32;20090;-83
2023/03/21 14:02:10;;;;;;;;;;;;;;;;;;4440014;32;20033;-81
2023/03/21 14:04:35;;;;;;;11.68;8.48;;;;;;;;;;4426105;32;19936;-82
2023/03/21 14:07:03;;;;;;;16.05;8.93;;;;;;;;;;4435183;32;20037;-80
2023/03/21 14:09:29;;;;;;;14.75;9.35;;;;;;;;;;4427230;32;20061;-82
2023/03/21 14:11:54;;;;;;;;;;;;;;;;;;4425230;32;20068;-82
2023/03/21 14:14:21;;;;;;;14.98;7.65;;;;;;;;;;4425020;32;20313;-80
2023/03/21 14:16:46;;;;;;;16.42;8.90;;;;;;;;;;4425379;32;20135;-81
2023/03/21 14:19:11;;;;;;;;;;;;;;;;;;4431279;32;20022;-81
2023/03/21 14:21:37;;;;;;;13.55;8.30;;;;;;;;;;4452458;32;19949;-81
2023/03/21 14:24:06;;;;;;;16.48;8.48;;;;;;;;;;4443047;32;20025;-81
2023/03/21 14:26:36;;;;;;;15.68;9.65;;;;;;;;;;4440647;32;20056;-81
2023/03/21 14:29:03;;;;;;;13.48;8.25;;;;;;;;;;4424316;32;20037;-82
2023/03/21 14:31:28;;;;;;;13.00;7.72;;;;;;;;;;4424935;32;20117;-81
2023/03/21 14:33:55;;;;;;;;;;;;;;;;;;4424687;32;20029;-81
2023/03/21 14:36:22;;;;;;;16.17;8.30;;;;;;;;;;4424506;32;19994;-82
2023/03/21 14:38:57;;;;;;;19.42;8.57;;;;;;;;;;4425345;32;20123;-82
2023/03/21 14:41:27;;;;;;;16.75;8.80;;;;;;;;;;4438068;32;20063;-82
2023/03/21 14:44:01;;;;;;;12.07;8.43;;;;;;;;;;4424226;32;20018;-81
2023/03/21 14:46:26;;;;;;;15.68;8.07;;;;;;;;;;4423550;32;20094;-81
2023/03/21 14:48:51;;;;;;;;;;;;;;;;;;4424036;32;20402;-81
2023/03/21 14:51:17;;;;;;;16.62;8.60;;;;;;;;;;4423370;32;19948;-80
2023/03/21 14:53:43;;;;;;;12.90;7.60;;;;;;;;;;4437093;32;20033;-81
2023/03/21 14:56:10;;;;;;;13.32;8.32;;;;;;;;;;4423941;32;20405;-80
2023/03/21 14:58:40;;;;;;;18.60;7.90;;;;;;;;;;4423738;32;20112;-81